Glasco, New York
Current Conditions -  °F | °C
As of 5:53 AM on Tuesday 21 Oct 2014 (Local Time) from KPOU Reporting Station
Light Rain Light Rain  
Wind Chill: 49°   Ceiling: 6500
Heat Index: 49°   Visibility: 10mi
Dew Point: 45°   Wind: 0mph
Humidity: 86%   Direction: NA
Pressure: 29.91"   Gusts: NA
Location:  42.05°N, 73.95°W
Report Text: KPOU 210953Z AUTO 00000KT 10SM -RA BKN065 OVC085 09/07 A2991 RMK AO2 RAB03 SLP126 P0000 T00940072 TSNO
Loading
Personal Weather Stations






























Interactive Weather Map
Tropical Storm Tracking
New forecast layout! Learn more

10-Day Weather Forecast

Advertisements
Track Severe Weather on mobile